Time;durP1;ratioP1;P1;durP2;ratioP2;P2;SDS_P1;SDS_P2;PMS_P1;PMS_P2;Temp;Humidity;BMP_temperature;BMP_pressure;BME280_temperature;BME280_humidity;BME280_pressure;Samples;Min_cycle;Max_cycle;Signal;HPM_P1;HPM_P2
2022/06/25 00:01:41;;;;;;;;;;;21.00;69.70;;;;;;5138049;27;19904;-39
2022/06/25 00:05:27;;;;;;;;;;;21.00;69.80;;;;;;5137457;27;19915;-40
2022/06/25 00:06:55;;;;;;;;;;;21.00;69.90;;;;;;5137488;27;20383;-40
2022/06/25 00:09:20;;;;;;;;;;;20.90;69.80;;;;;;5137722;27;19903;-40
2022/06/25 00:14:30;;;;;;;;;;;20.80;70.00;;;;;;5138392;27;19911;-39
2022/06/25 00:16:56;;;;;;;;;;;20.80;70.10;;;;;;5137525;27;20279;-39
2022/06/25 00:19:21;;;;;;;;;;;20.80;70.00;;;;;;5137319;27;19904;-39
2022/06/25 00:21:46;;;;;;;;;;;20.80;70.20;;;;;;5137192;27;19903;-39
2022/06/25 00:24:12;;;;;;;;;;;20.70;70.10;;;;;;5137453;27;19907;-39
2022/06/25 00:26:37;;;;;;;;;;;20.70;70.20;;;;;;5137171;27;19907;-42
2022/06/25 00:29:03;;;;;;;;;;;20.70;70.30;;;;;;5137076;27;19910;-39
2022/06/25 00:31:28;;;;;;;;;;;20.70;70.50;;;;;;5137402;27;19907;-39
2022/06/25 00:33:54;;;;;;;;;;;20.60;70.40;;;;;;5136990;27;19904;-39
2022/06/25 00:36:20;;;;;;;;;;;20.60;70.50;;;;;;5137427;27;19903;-40
2022/06/25 00:38:45;;;;;;;;;;;20.60;70.70;;;;;;5135644;27;19903;-39
2022/06/25 00:41:13;;;;;;;;;;;20.60;70.70;;;;;;5136963;27;19903;-40
2022/06/25 00:43:39;;;;;;;;;;;20.60;70.70;;;;;;5136764;27;19907;-41
2022/06/25 00:46:05;;;;;;;;;;;20.60;70.80;;;;;;5136757;27;19903;-39
2022/06/25 00:48:30;;;;;;;;;;;20.60;70.90;;;;;;5136785;27;19994;-40
2022/06/25 00:50:58;;;;;;;;;;;20.50;70.80;;;;;;5136785;27;19903;-39
2022/06/25 00:53:30;;;;;;;;;;;20.50;70.80;;;;;;5136677;27;19934;-40
2022/06/25 00:55:56;;;;;;;;;;;20.50;70.90;;;;;;5136626;27;20040;-39
2022/06/25 00:58:23;;;;;;;;;;;20.50;71.10;;;;;;5136988;27;19967;-39
2022/06/25 01:00:49;;;;;;;;;;;20.50;71.00;;;;;;5136518;27;19907;-40
2022/06/25 01:03:15;;;;;;;;;;;20.50;71.00;;;;;;5136321;27;19915;-40
2022/06/25 01:05:40;;;;;;;;;;;20.50;71.00;;;;;;5136413;27;19904;-39
2022/06/25 01:08:06;;;;;;;;;;;20.50;71.00;;;;;;5136670;27;19942;-39
2022/06/25 01:10:31;;;;;;;;;;;20.40;71.00;;;;;;5136594;27;19904;-39
2022/06/25 01:12:57;;;;;;;;;;;20.50;71.10;;;;;;5136375;27;19956;-44
2022/06/25 01:15:23;;;;;;;;;;;20.40;71.00;;;;;;5135211;27;19903;-40
2022/06/25 01:17:51;;;;;;;;;;;20.40;71.10;;;;;;5136213;27;19903;-39
2022/06/25 01:20:18;;;;;;;;;;;20.40;71.70;;;;;;5136179;27;19954;-38
2022/06/25 01:22:44;;;;;;;;;;;20.40;71.10;;;;;;5136154;27;19956;-40
2022/06/25 01:25:10;;;;;;;;;;;20.40;71.30;;;;;;5136077;27;19911;-40
2022/06/25 01:27:35;;;;;;;;;;;20.40;71.20;;;;;;5136042;27;19903;-40
2022/06/25 01:30:03;;;;;;;;;;;20.40;71.20;;;;;;5135889;27;20323;-38
2022/06/25 01:32:29;;;;;;;;;;;20.40;71.30;;;;;;5136292;27;19910;-39
2022/06/25 01:34:54;;;;;;;;;;;20.30;71.30;;;;;;5135965;27;19904;-39
2022/06/25 01:37:21;;;;;;;;;;;20.30;71.30;;;;;;5135799;27;19903;-39
2022/06/25 01:39:50;;;;;;;;;;;20.30;71.20;;;;;;5135782;27;20350;-38
2022/06/25 01:45:00;;;;;;;;;;;20.30;71.40;;;;;;5135573;27;20316;-39
2022/06/25 01:47:25;;;;;;;;;;;20.30;71.40;;;;;;5135577;27;19904;-40
2022/06/25 01:49:51;;;;;;;;;;;20.30;71.20;;;;;;5135528;27;20263;-39
2022/06/25 01:52:16;;;;;;;;;;;20.30;71.30;;;;;;5135546;27;20277;-39
2022/06/25 01:54:42;;;;;;;;;;;20.20;71.30;;;;;;5135566;27;19907;-39
2022/06/25 01:57:07;;;;;;;;;;;20.20;71.40;;;;;;5134220;27;19914;-39
2022/06/25 01:59:32;;;;;;;;;;;20.20;71.40;;;;;;5136194;27;19904;-39
2022/06/25 02:01:58;;;;;;;;;;;20.20;71.80;;;;;;5133930;27;19911;-39
2022/06/25 02:04:25;;;;;;;;;;;20.10;71.60;;;;;;5134100;27;20014;-39
2022/06/25 02:06:50;;;;;;;;;;;20.10;71.70;;;;;;5135761;27;19965;-38
2022/06/25 02:09:16;;;;;;;;;;;20.10;71.80;;;;;;5135456;27;20005;-39
2022/06/25 02:11:41;;;;;;;;;;;20.10;71.80;;;;;;5135109;27;19954;-38
2022/06/25 02:14:07;;;;;;;;;;;20.10;71.80;;;;;;5135279;27;19907;-39
2022/06/25 02:16:32;;;;;;;;;;;20.00;71.90;;;;;;5133688;27;19958;-40
2022/06/25 02:18:58;;;;;;;;;;;20.00;72.00;;;;;;5135124;27;19914;-40
2022/06/25 02:21:23;;;;;;;;;;;20.00;72.00;;;;;;5134621;27;19911;-40
2022/06/25 02:23:49;;;;;;;;;;;20.00;72.10;;;;;;5134905;27;19911;-39
2022/06/25 02:26:14;;;;;;;;;;;20.00;72.00;;;;;;5135186;27;19913;-39
2022/06/25 02:28:40;;;;;;;;;;;20.00;72.70;;;;;;5135135;27;19907;-38
2022/06/25 02:31:05;;;;;;;;;;;19.90;72.20;;;;;;5134838;27;19926;-39
2022/06/25 02:33:30;;;;;;;;;;;19.90;72.20;;;;;;5134755;27;19915;-40
2022/06/25 02:35:56;;;;;;;;;;;19.90;72.30;;;;;;5134785;27;19913;-39
2022/06/25 02:38:21;;;;;;;;;;;19.90;72.30;;;;;;5135068;27;19968;-38
2022/06/25 02:40:47;;;;;;;;;;;19.90;72.30;;;;;;5134749;27;19954;-39
2022/06/25 02:43:12;;;;;;;;;;;19.90;72.40;;;;;;5134637;27;20263;-39
2022/06/25 02:45:38;;;;;;;;;;;19.90;72.30;;;;;;5134492;27;19911;-38
2022/06/25 02:48:03;;;;;;;;;;;19.80;72.50;;;;;;5134744;27;20366;-39
2022/06/25 02:50:29;;;;;;;;;;;19.80;72.60;;;;;;5134605;27;19950;-38
2022/06/25 02:52:54;;;;;;;;;;;19.70;72.60;;;;;;5134700;27;19951;-38
2022/06/25 02:58:54;;;;;;;;;;;19.70;72.60;;;;;;5134677;27;19907;-39
2022/06/25 03:00:50;;;;;;;;;;;19.70;72.60;;;;;;5134674;27;19914;-39
2022/06/25 03:03:15;;;;;;;;;;;19.70;72.60;;;;;;5134566;27;20270;-38
2022/06/25 03:05:41;;;;;;;;;;;19.60;72.60;;;;;;5134363;27;20290;-38
2022/06/25 03:08:06;;;;;;;;;;;19.60;72.60;;;;;;5134424;27;19914;-39
2022/06/25 03:10:32;;;;;;;;;;;19.60;72.80;;;;;;5134477;27;19919;-39
2022/06/25 03:12:57;;;;;;;;;;;19.60;72.70;;;;;;5134286;27;19907;-38
2022/06/25 03:15:23;;;;;;;;;;;19.60;72.70;;;;;;5134456;27;19907;-38
2022/06/25 03:17:49;;;;;;;;;;;19.50;72.70;;;;;;5134562;27;19908;-38
2022/06/25 03:20:14;;;;;;;;;;;19.60;72.80;;;;;;5134533;27;19946;-39
2022/06/25 03:22:39;;;;;;;;;;;19.50;72.70;;;;;;5134171;27;19960;-38
2022/06/25 03:25:05;;;;;;;;;;;19.50;72.70;;;;;;5134185;27;19918;-39
2022/06/25 03:27:31;;;;;;;;;;;19.50;72.60;;;;;;5132904;27;19907;-40
2022/06/25 03:29:56;;;;;;;;;;;19.50;72.70;;;;;;5134303;27;19907;-39
2022/06/25 03:32:21;;;;;;;;;;;19.50;72.70;;;;;;5135462;27;20001;-39
2022/06/25 03:34:47;;;;;;;;;;;19.50;72.70;;;;;;5138223;27;20367;-38
2022/06/25 03:37:12;;;;;;;;;;;19.50;72.70;;;;;;5138205;27;19910;-38
2022/06/25 03:39:38;;;;;;;;;;;19.50;72.90;;;;;;5138092;27;19967;-38
2022/06/25 03:42:04;;;;;;;;;;;19.50;72.80;;;;;;5138210;27;19915;-39
2022/06/25 03:44:29;;;;;;;;;;;19.50;72.70;;;;;;5137935;27;19977;-39
2022/06/25 03:46:55;;;;;;;;;;;19.40;72.70;;;;;;5138288;27;20036;-39
2022/06/25 03:49:20;;;;;;;;;;;19.50;72.70;;;;;;5138116;27;20263;-39
2022/06/25 03:51:46;;;;;;;;;;;19.50;72.70;;;;;;5138156;27;20010;-38
2022/06/25 03:54:11;;;;;;;;;;;19.50;72.70;;;;;;5138009;27;19907;-39
2022/06/25 03:56:37;;;;;;;;;;;19.50;72.70;;;;;;5137825;27;20290;-40
2022/06/25 03:59:03;;;;;;;;;;;19.50;72.70;;;;;;5136528;27;19942;-39
2022/06/25 04:01:28;;;;;;;;;;;19.50;72.60;;;;;;5138024;27;19932;-39
2022/06/25 04:03:53;;;;;;;;;;;19.50;72.60;;;;;;5137575;27;19916;-40
2022/06/25 04:06:19;;;;;;;;;;;19.50;72.60;;;;;;5138135;27;19912;-44
2022/06/25 04:08:45;;;;;;;;;;;19.50;72.60;;;;;;5137743;27;19915;-45
2022/06/25 04:11:10;;;;;;;;;;;19.50;72.50;;;;;;5137601;27;19933;-39
2022/06/25 04:13:36;;;;;;;;;;;19.50;72.50;;;;;;5137609;27;19908;-39
2022/06/25 04:16:01;;;;;;;;;;;19.50;72.50;;;;;;5137682;27;19908;-39
2022/06/25 04:18:27;;;;;;;;;;;19.50;72.40;;;;;;5137484;27;19967;-39
2022/06/25 04:20:52;;;;;;;;;;;19.50;72.40;;;;;;5137981;27;19908;-40
2022/06/25 04:23:18;;;;;;;;;;;19.50;72.40;;;;;;5137616;27;19908;-39
2022/06/25 04:25:43;;;;;;;;;;;19.50;72.40;;;;;;5137463;27;19957;-38
2022/06/25 04:30:53;;;;;;;;;;;19.60;73.00;;;;;;5137454;27;19955;-39
2022/06/25 04:33:18;;;;;;;;;;;19.50;72.30;;;;;;5137406;27;19998;-39
2022/06/25 04:35:44;;;;;;;;;;;19.50;72.90;;;;;;5137370;27;19907;-39
2022/06/25 04:38:09;;;;;;;;;;;19.50;72.30;;;;;;5137588;27;19914;-39
2022/06/25 04:40:35;;;;;;;;;;;19.60;72.30;;;;;;5137140;27;20396;-39
2022/06/25 04:43:01;;;;;;;;;;;19.60;72.20;;;;;;5136900;27;19914;-40
2022/06/25 04:45:26;;;;;;;;;;;19.60;72.20;;;;;;5136901;27;20289;-39
2022/06/25 04:47:52;;;;;;;;;;;19.60;72.20;;;;;;5136816;27;19956;-39
2022/06/25 04:50:17;;;;;;;;;;;19.60;72.20;;;;;;5136850;27;19911;-39
2022/06/25 04:52:43;;;;;;;;;;;19.60;72.10;;;;;;5135464;27;20286;-39
2022/06/25 04:55:08;;;;;;;;;;;19.60;72.10;;;;;;5137216;27;19907;-38
2022/06/25 04:57:34;;;;;;;;;;;19.70;72.10;;;;;;5137330;27;19951;-39
2022/06/25 04:59:59;;;;;;;;;;;19.60;72.10;;;;;;5136911;27;19907;-39
2022/06/25 05:02:25;;;;;;;;;;;19.70;72.10;;;;;;5136519;27;20035;-39
2022/06/25 05:04:50;;;;;;;;;;;19.80;72.10;;;;;;5136805;27;19950;-39
2022/06/25 05:07:16;;;;;;;;;;;19.90;72.10;;;;;;5136536;27;20011;-38
2022/06/25 05:09:42;;;;;;;;;;;19.90;72.00;;;;;;5136457;27;19907;-38
2022/06/25 05:12:08;;;;;;;;;;;20.00;71.70;;;;;;5136738;27;20247;-39
2022/06/25 05:14:33;;;;;;;;;;;20.10;71.70;;;;;;5136373;27;19911;-39
2022/06/25 05:16:59;;;;;;;;;;;20.20;71.70;;;;;;5137095;27;19919;-39
2022/06/25 05:19:24;;;;;;;;;;;20.20;71.50;;;;;;5136331;27;19907;-39
2022/06/25 05:21:50;;;;;;;;;;;20.20;71.40;;;;;;5136270;27;19993;-39
2022/06/25 05:24:15;;;;;;;;;;;20.30;71.60;;;;;;5136395;27;20281;-39
2022/06/25 05:26:41;;;;;;;;;;;20.30;71.40;;;;;;5136408;27;19911;-38
2022/06/25 05:29:07;;;;;;;;;;;20.40;71.50;;;;;;5136380;27;20002;-40
2022/06/25 05:31:32;;;;;;;;;;;20.40;71.50;;;;;;5134742;27;19907;-39
2022/06/25 05:33:58;;;;;;;;;;;20.40;71.50;;;;;;5135925;27;19918;-39
2022/06/25 05:36:24;;;;;;;;;;;20.50;71.50;;;;;;5134692;27;19907;-40
2022/06/25 05:38:49;;;;;;;;;;;20.50;71.40;;;;;;5135914;27;19908;-39
2022/06/25 05:41:15;;;;;;;;;;;20.60;71.40;;;;;;5136130;27;19915;-40
2022/06/25 05:43:40;;;;;;;;;;;20.70;71.20;;;;;;5135670;27;20251;-39
2022/06/25 05:46:06;;;;;;;;;;;20.70;71.20;;;;;;5136049;27;19965;-39
2022/06/25 05:48:32;;;;;;;;;;;20.70;71.20;;;;;;5135667;27;19915;-39
2022/06/25 05:50:58;;;;;;;;;;;20.70;71.10;;;;;;5135660;27;19911;-38
2022/06/25 05:53:23;;;;;;;;;;;20.70;71.00;;;;;;5135650;27;19907;-39
2022/06/25 05:55:49;;;;;;;;;;;20.80;71.00;;;;;;5135080;27;19907;-39
2022/06/25 05:58:14;;;;;;;;;;;20.80;71.00;;;;;;5134264;27;19915;-39
2022/06/25 06:00:40;;;;;;;;;;;20.80;71.60;;;;;;5135904;27;19907;-39
2022/06/25 06:03:05;;;;;;;;;;;20.80;71.00;;;;;;5135498;27;19911;-39
2022/06/25 06:05:31;;;;;;;;;;;20.80;71.00;;;;;;5135300;27;20343;-44
2022/06/25 06:07:57;;;;;;;;;;;20.80;71.00;;;;;;5135547;27;20438;-39
2022/06/25 06:10:22;;;;;;;;;;;20.80;71.00;;;;;;5135504;27;20394;-39
2022/06/25 06:12:47;;;;;;;;;;;20.80;71.00;;;;;;5135208;27;19912;-39
2022/06/25 06:15:13;;;;;;;;;;;20.80;71.00;;;;;;5135546;27;19915;-39
2022/06/25 06:17:38;;;;;;;;;;;20.80;71.00;;;;;;5135378;27;20388;-38
2022/06/25 06:20:06;;;;;;;;;;;20.80;70.90;;;;;;5135087;27;19915;-40
2022/06/25 06:22:31;;;;;;;;;;;20.80;71.00;;;;;;5135201;27;19915;-39
2022/06/25 06:24:57;;;;;;;;;;;20.80;70.90;;;;;;5135541;27;19940;-39
2022/06/25 06:27:22;;;;;;;;;;;20.80;70.80;;;;;;5135485;27;19908;-39
2022/06/25 06:29:48;;;;;;;;;;;20.80;70.80;;;;;;5134730;27;19932;-39
2022/06/25 06:32:13;;;;;;;;;;;20.90;70.80;;;;;;5135027;27;19907;-39
2022/06/25 06:34:39;;;;;;;;;;;20.90;70.70;;;;;;5134811;27;19938;-38
2022/06/25 06:37:04;;;;;;;;;;;20.90;70.70;;;;;;5134637;27;19908;-39
2022/06/25 06:39:30;;;;;;;;;;;21.00;70.60;;;;;;5134760;27;19984;-39
2022/06/25 06:41:55;;;;;;;;;;;21.00;70.50;;;;;;5134522;27;19907;-39
2022/06/25 06:44:21;;;;;;;;;;;21.00;70.40;;;;;;5134810;27;19955;-38
2022/06/25 06:46:47;;;;;;;;;;;21.10;70.30;;;;;;5134579;27;19907;-37
2022/06/25 06:49:12;;;;;;;;;;;21.10;70.20;;;;;;5134815;27;20476;-40
2022/06/25 06:51:38;;;;;;;;;;;21.10;70.20;;;;;;5134452;27;20380;-39
2022/06/25 06:54:03;;;;;;;;;;;21.10;70.10;;;;;;5134432;27;19912;-40
2022/06/25 06:56:29;;;;;;;;;;;21.20;70.10;;;;;;5134412;27;19908;-39
2022/06/25 06:58:54;;;;;;;;;;;21.20;70.00;;;;;;5134362;27;20006;-39
2022/06/25 07:01:20;;;;;;;;;;;21.30;70.00;;;;;;5134447;27;19907;-39
2022/06/25 07:03:45;;;;;;;;;;;21.30;69.90;;;;;;5134221;27;19919;-40
2022/06/25 07:06:11;;;;;;;;;;;21.30;69.80;;;;;;5134886;27;19907;-39
2022/06/25 07:08:36;;;;;;;;;;;21.30;69.80;;;;;;5141305;27;19914;-40
2022/06/25 07:11:02;;;;;;;;;;;21.40;69.80;;;;;;5141204;27;20366;-39
2022/06/25 07:13:27;;;;;;;;;;;21.40;69.70;;;;;;5139846;27;19912;-39
2022/06/25 07:15:53;;;;;;;;;;;21.50;69.70;;;;;;5141363;27;20378;-40
2022/06/25 07:18:18;;;;;;;;;;;21.40;69.60;;;;;;5141664;27;19995;-39
2022/06/25 07:20:44;;;;;;;;;;;21.50;69.60;;;;;;5140989;27;19908;-38
2022/06/25 07:23:09;;;;;;;;;;;21.50;69.50;;;;;;5140935;27;19923;-41
2022/06/25 07:25:35;;;;;;;;;;;21.60;69.40;;;;;;5140945;27;20347;-40
2022/06/25 07:28:00;;;;;;;;;;;21.60;69.20;;;;;;5140988;27;19907;-40
2022/06/25 07:30:26;;;;;;;;;;;21.70;69.20;;;;;;5141004;27;19907;-39
2022/06/25 07:32:51;;;;;;;;;;;21.70;69.20;;;;;;5140938;27;19911;-40
2022/06/25 07:35:16;;;;;;;;;;;21.70;69.10;;;;;;5141211;27;20337;-40
2022/06/25 07:37:42;;;;;;;;;;;21.80;69.00;;;;;;5141062;27;19907;-39
2022/06/25 07:40:08;;;;;;;;;;;21.90;68.90;;;;;;5141273;27;19907;-40
2022/06/25 07:42:34;;;;;;;;;;;22.00;68.80;;;;;;5141250;27;20247;-40
2022/06/25 07:44:59;;;;;;;;;;;22.10;68.60;;;;;;5140960;27;20001;-40
2022/06/25 07:47:25;;;;;;;;;;;22.20;68.40;;;;;;5140891;27;19907;-40
2022/06/25 07:52:35;;;;;;;;;;;22.30;68.10;;;;;;5141039;27;19965;-40
2022/06/25 07:55:03;;;;;;;;;;;22.50;68.00;;;;;;5141059;27;19939;-41
2022/06/25 07:57:29;;;;;;;;;;;22.60;67.80;;;;;;5140776;27;19911;-41
2022/06/25 07:59:54;;;;;;;;;;;22.70;67.60;;;;;;5141000;27;19907;-41
2022/06/25 08:02:20;;;;;;;;;;;22.80;67.50;;;;;;5140715;27;19911;-49
2022/06/25 08:04:45;;;;;;;;;;;22.80;67.30;;;;;;5140968;27;19915;-39
2022/06/25 08:07:11;;;;;;;;;;;22.80;67.50;;;;;;5141078;27;20002;-40
2022/06/25 08:09:36;;;;;;;;;;;22.70;67.30;;;;;;5141231;27;19908;-40
2022/06/25 08:12:04;;;;;;;;;;;22.70;67.40;;;;;;5140379;27;19915;-39
2022/06/25 08:14:29;;;;;;;;;;;22.70;67.30;;;;;;5140587;27;19907;-40
2022/06/25 08:16:55;;;;;;;;;;;22.70;67.10;;;;;;5139278;27;20009;-40
2022/06/25 08:19:21;;;;;;;;;;;22.70;67.10;;;;;;5136807;27;20022;-40
2022/06/25 08:21:48;;;;;;;;;;;22.80;67.00;;;;;;5137545;27;19907;-39
2022/06/25 08:24:13;;;;;;;;;;;22.80;66.90;;;;;;5137296;27;20002;-40
2022/06/25 08:26:39;;;;;;;;;;;23.00;66.70;;;;;;5137623;27;20378;-39
2022/06/25 08:29:04;;;;;;;;;;;23.10;66.50;;;;;;5137281;27;20005;-40
2022/06/25 08:31:29;;;;;;;;;;;23.20;66.40;;;;;;5137214;27;19914;-41
2022/06/25 08:33:55;;;;;;;;;;;23.30;66.10;;;;;;5137067;27;19914;-42
2022/06/25 08:36:22;;;;;;;;;;;23.30;65.80;;;;;;5137480;27;19907;-41
2022/06/25 08:38:47;;;;;;;;;;;23.40;65.80;;;;;;5136997;27;19907;-40
2022/06/25 08:41:13;;;;;;;;;;;23.50;65.60;;;;;;5135708;27;19914;-40
2022/06/25 08:43:40;;;;;;;;;;;23.60;65.50;;;;;;5137092;27;20358;-38
2022/06/25 08:46:06;;;;;;;;;;;23.60;65.30;;;;;;5137138;27;20006;-39
2022/06/25 08:48:32;;;;;;;;;;;23.80;65.20;;;;;;5135601;27;20443;-41
2022/06/25 08:50:58;;;;;;;;;;;23.90;65.00;;;;;;5136738;27;20390;-40
2022/06/25 08:53:24;;;;;;;;;;;24.00;64.90;;;;;;5136747;27;19954;-40
2022/06/25 08:55:50;;;;;;;;;;;24.10;64.80;;;;;;5136533;27;19915;-39
2022/06/25 08:58:16;;;;;;;;;;;24.10;64.00;;;;;;5136472;27;20362;-40
2022/06/25 09:00:43;;;;;;;;;;;24.20;64.00;;;;;;5136646;27;19956;-39
2022/06/25 09:03:09;;;;;;;;;;;24.30;63.80;;;;;;5136231;27;19911;-39
2022/06/25 09:05:40;;;;;;;;;;;24.30;63.50;;;;;;5136275;27;19926;-41
2022/06/25 09:08:07;;;;;;;;;;;24.40;63.30;;;;;;5136605;27;20271;-40
2022/06/25 09:10:33;;;;;;;;;;;24.40;63.20;;;;;;5136460;27;20392;-41
2022/06/25 09:12:59;;;;;;;;;;;24.40;63.00;;;;;;5136512;27;19911;-40
2022/06/25 09:15:27;;;;;;;;;;;24.40;63.00;;;;;;5134762;27;19976;-40
2022/06/25 09:17:53;;;;;;;;;;;24.50;63.00;;;;;;5136190;27;19947;-40
2022/06/25 09:20:20;;;;;;;;;;;24.50;62.80;;;;;;5136232;27;20435;-40
2022/06/25 09:23:05;;;;;;;;;;;24.50;62.80;;;;;;5136207;27;20385;-39
2022/06/25 09:25:31;;;;;;;;;;;24.40;62.90;;;;;;5135735;27;19923;-39
2022/06/25 09:27:57;;;;;;;;;;;24.30;63.00;;;;;;5136017;27;19990;-40
2022/06/25 09:30:24;;;;;;;;;;;24.20;63.10;;;;;;5134781;27;20387;-40
2022/06/25 09:32:51;;;;;;;;;;;24.10;63.10;;;;;;5135966;27;19908;-41
2022/06/25 09:35:36;;;;;;;;;;;24.10;63.40;;;;;;5135558;27;19919;-40
2022/06/25 09:38:09;;;;;;;;;;;24.00;63.50;;;;;;5135834;27;19907;-41
2022/06/25 09:40:37;;;;;;;;;;;24.00;63.60;;;;;;5136001;27;19914;-40
2022/06/25 09:43:10;;;;;;;;;;;23.90;63.50;;;;;;5135454;27;19907;-39
2022/06/25 09:45:35;;;;;;;;;;;23.80;63.50;;;;;;5135340;27;19919;-41
2022/06/25 09:48:01;;;;;;;;;;;23.80;63.60;;;;;;5135331;27;19908;-41
2022/06/25 09:50:26;;;;;;;;;;;23.80;63.70;;;;;;5135409;27;20009;-41
2022/06/25 09:52:56;;;;;;;;;;;23.70;63.70;;;;;;5135354;27;19911;-41
2022/06/25 09:55:23;;;;;;;;;;;23.70;63.70;;;;;;5135572;27;19907;-42
2022/06/25 09:57:50;;;;;;;;;;;23.70;63.70;;;;;;5135511;27;19915;-41
2022/06/25 10:00:17;;;;;;;;;;;23.60;63.70;;;;;;5135457;27;20386;-40
2022/06/25 10:02:45;;;;;;;;;;;23.50;63.90;;;;;;5135186;27;19994;-40
2022/06/25 10:05:11;;;;;;;;;;;23.50;64.10;;;;;;5135223;27;20018;-41
2022/06/25 10:10:21;;;;;;;;;;;23.40;64.20;;;;;;5135375;27;19983;-41
2022/06/25 10:12:47;;;;;;;;;;;23.40;64.30;;;;;;5134951;27;19914;-41
2022/06/25 10:15:18;;;;;;;;;;;23.40;64.20;;;;;;5135394;27;20425;-41
2022/06/25 10:17:47;;;;;;;;;;;23.50;64.20;;;;;;5135058;27;20002;-41
2022/06/25 10:20:13;;;;;;;;;;;23.60;64.10;;;;;;5134917;27;19935;-41
2022/06/25 10:22:39;;;;;;;;;;;23.70;63.90;;;;;;5134921;27;20251;-42
2022/06/25 10:25:07;;;;;;;;;;;23.80;63.70;;;;;;5134784;27;19934;-40
2022/06/25 10:27:40;;;;;;;;;;;23.90;63.60;;;;;;5134809;27;19907;-40
2022/06/25 10:30:06;;;;;;;;;;;24.00;63.40;;;;;;5135205;27;19907;-41
2022/06/25 10:32:34;;;;;;;;;;;24.00;63.20;;;;;;5134752;27;19907;-41
2022/06/25 10:35:02;;;;;;;;;;;24.00;63.10;;;;;;5133797;27;19914;-40
2022/06/25 10:37:48;;;;;;;;;;;24.10;62.90;;;;;;5134724;27;19936;-39
2022/06/25 10:40:17;;;;;;;;;;;24.10;62.80;;;;;;5134636;27;20006;-42
2022/06/25 10:43:01;;;;;;;;;;;24.30;62.80;;;;;;5134304;27;19943;-40
2022/06/25 10:45:32;;;;;;;;;;;24.40;62.70;;;;;;5134618;27;20007;-38
2022/06/25 10:47:59;;;;;;;;;;;24.30;62.50;;;;;;5134997;27;19911;-39
2022/06/25 10:50:27;;;;;;;;;;;24.30;62.70;;;;;;5135187;27;19937;-38
2022/06/25 10:53:02;;;;;;;;;;;24.30;62.70;;;;;;5134495;27;19915;-39
2022/06/25 10:55:28;;;;;;;;;;;24.20;62.90;;;;;;5133211;27;19998;-40
2022/06/25 10:58:13;;;;;;;;;;;24.20;62.90;;;;;;5134690;27;19915;-39
2022/06/25 11:00:48;;;;;;;;;;;24.10;63.00;;;;;;5134138;27;20010;-40
2022/06/25 11:03:15;;;;;;;;;;;23.90;63.20;;;;;;5134275;27;19911;-40
2022/06/25 11:05:45;;;;;;;;;;;23.80;63.40;;;;;;5134560;27;19921;-38
2022/06/25 11:08:11;;;;;;;;;;;23.90;63.50;;;;;;5133437;28;19907;-39
2022/06/25 11:10:37;;;;;;;;;;;23.80;63.30;;;;;;5134976;27;19995;-40
2022/06/25 11:13:03;;;;;;;;;;;23.90;63.30;;;;;;5134305;27;19914;-39
2022/06/25 11:15:39;;;;;;;;;;;24.00;63.30;;;;;;5134817;27;19907;-40
2022/06/25 11:18:08;;;;;;;;;;;24.00;63.20;;;;;;5134678;27;19968;-40
2022/06/25 11:20:33;;;;;;;;;;;24.00;63.20;;;;;;5133026;28;20304;-39
2022/06/25 11:22:59;;;;;;;;;;;24.10;63.20;;;;;;5134603;27;19907;-40
2022/06/25 11:30:53;;;;;;;;;;;24.00;63.20;;;;;;5135221;28;19914;-38
2022/06/25 11:33:18;;;;;;;;;;;24.10;63.10;;;;;;5134130;27;20282;-39
2022/06/25 11:35:44;;;;;;;;;;;24.10;63.10;;;;;;5134075;27;19972;-37
2022/06/25 11:38:14;;;;;;;;;;;24.20;62.80;;;;;;5134154;27;19968;-39
2022/06/25 11:40:40;;;;;;;;;;;24.30;62.80;;;;;;5134226;27;19994;-37
2022/06/25 11:43:06;;;;;;;;;;;24.40;62.60;;;;;;5134372;27;19958;-38
2022/06/25 11:45:32;;;;;;;;;;;24.70;62.50;;;;;;5133843;27;19955;-38
2022/06/25 11:47:57;;;;;;;;;;;24.90;62.00;;;;;;5133958;27;19942;-39
2022/06/25 11:50:23;;;;;;;;;;;25.00;61.70;;;;;;5134052;27;19933;-39
2022/06/25 11:52:48;;;;;;;;;;;25.20;61.50;;;;;;5134410;27;19994;-39
2022/06/25 11:55:14;;;;;;;;;;;25.40;61.20;;;;;;5138132;27;20358;-39
2022/06/25 11:57:42;;;;;;;;;;;25.50;61.00;;;;;;5138062;27;19907;-37
2022/06/25 12:00:09;;;;;;;;;;;25.60;60.70;;;;;;5136994;27;19995;-40
2022/06/25 12:02:35;;;;;;;;;;;25.70;60.60;;;;;;5136217;27;19918;-39
2022/06/25 12:05:02;;;;;;;;;;;25.80;61.00;;;;;;5137591;27;19915;-39
2022/06/25 12:07:28;;;;;;;;;;;25.90;60.20;;;;;;5137838;27;20349;-40
2022/06/25 12:09:55;;;;;;;;;;;26.10;59.80;;;;;;5137923;27;20002;-38
2022/06/25 12:12:22;;;;;;;;;;;26.20;60.10;;;;;;5136118;27;19914;-39
2022/06/25 12:14:48;;;;;;;;;;;26.30;59.40;;;;;;5137416;27;20007;-39
2022/06/25 12:17:14;;;;;;;;;;;26.30;59.20;;;;;;5137797;27;20014;-39
2022/06/25 12:19:52;;;;;;;;;;;26.30;59.20;;;;;;5137408;27;19947;-38
2022/06/25 12:22:30;;;;;;;;;;;26.30;59.20;;;;;;5137688;27;20400;-39
2022/06/25 12:24:58;;;;;;;;;;;26.30;59.20;;;;;;5137078;27;19964;-39
2022/06/25 12:27:24;;;;;;;;;;;26.40;59.00;;;;;;5137250;27;20340;-39
2022/06/25 12:29:50;;;;;;;;;;;26.40;59.00;;;;;;5137138;27;20010;-40
2022/06/25 12:32:16;;;;;;;;;;;26.40;59.10;;;;;;5137396;27;19954;-39
2022/06/25 12:34:48;;;;;;;;;;;26.40;58.90;;;;;;5137502;27;20313;-39
2022/06/25 12:37:30;;;;;;;;;;;26.30;59.00;;;;;;5137148;27;19908;-39
2022/06/25 12:39:59;;;;;;;;;;;26.30;59.10;;;;;;5137336;27;19959;-40
2022/06/25 12:42:26;;;;;;;;;;;26.40;59.10;;;;;;5137322;27;19972;-40
2022/06/25 12:44:52;;;;;;;;;;;26.40;58.90;;;;;;5137074;27;20455;-39
2022/06/25 12:47:18;;;;;;;;;;;26.50;58.90;;;;;;5137314;27;20027;-40
2022/06/25 12:49:53;;;;;;;;;;;26.60;59.00;;;;;;5136842;27;20423;-39
2022/06/25 12:52:23;;;;;;;;;;;26.60;58.90;;;;;;5136823;27;19911;-42
2022/06/25 12:54:56;;;;;;;;;;;26.70;59.00;;;;;;5136938;27;19968;-40
2022/06/25 12:57:25;;;;;;;;;;;26.70;58.80;;;;;;5137164;27;19953;-39
2022/06/25 12:59:51;;;;;;;;;;;26.80;58.80;;;;;;5136839;27;19907;-39
2022/06/25 13:02:17;;;;;;;;;;;26.80;58.70;;;;;;5136740;27;19914;-39
2022/06/25 13:04:42;;;;;;;;;;;26.90;59.10;;;;;;5136412;27;19915;-39
2022/06/25 13:07:09;;;;;;;;;;;27.00;58.20;;;;;;5136558;27;20282;-40
2022/06/25 13:09:35;;;;;;;;;;;27.10;58.30;;;;;;5136896;27;20381;-40
2022/06/25 13:12:00;;;;;;;;;;;27.20;58.00;;;;;;5136405;27;19907;-40
2022/06/25 13:14:26;;;;;;;;;;;27.30;57.60;;;;;;5136431;27;19997;-40
2022/06/25 13:16:51;;;;;;;;;;;27.40;57.50;;;;;;5136157;27;20399;-39
2022/06/25 13:19:16;;;;;;;;;;;27.50;57.10;;;;;;5136334;27;19953;-39
2022/06/25 13:21:42;;;;;;;;;;;27.60;57.00;;;;;;5136209;27;19908;-39
2022/06/25 13:24:08;;;;;;;;;;;27.70;56.60;;;;;;5136629;27;19911;-40
2022/06/25 13:26:34;;;;;;;;;;;27.80;56.50;;;;;;5136603;27;20296;-44
2022/06/25 13:28:59;;;;;;;;;;;27.70;56.50;;;;;;5135999;27;19951;-40
2022/06/25 13:31:25;;;;;;;;;;;27.70;56.00;;;;;;5136057;27;19914;-40
2022/06/25 13:33:50;;;;;;;;;;;27.80;56.10;;;;;;5135873;27;19946;-39
2022/06/25 13:36:16;;;;;;;;;;;27.80;56.10;;;;;;5135825;27;19914;-39
2022/06/25 13:38:41;;;;;;;;;;;27.80;56.20;;;;;;5135834;27;20286;-39
2022/06/25 13:41:07;;;;;;;;;;;27.70;56.30;;;;;;5135818;27;20286;-40
2022/06/25 13:43:32;;;;;;;;;;;27.60;56.20;;;;;;5136387;27;19908;-40
2022/06/25 13:45:58;;;;;;;;;;;27.50;56.10;;;;;;5135534;27;19922;-41
2022/06/25 13:48:23;;;;;;;;;;;27.40;56.30;;;;;;5135552;27;20002;-39
2022/06/25 13:50:49;;;;;;;;;;;27.40;56.60;;;;;;5135555;27;20263;-39
2022/06/25 13:53:14;;;;;;;;;;;27.50;56.50;;;;;;5135630;27;19956;-40
2022/06/25 13:55:40;;;;;;;;;;;27.60;56.50;;;;;;5135703;27;19913;-38
2022/06/25 13:58:05;;;;;;;;;;;27.70;56.30;;;;;;5135659;27;19908;-41
2022/06/25 14:00:31;;;;;;;;;;;27.90;56.20;;;;;;5135480;27;20330;-39
2022/06/25 14:02:56;;;;;;;;;;;28.00;56.00;;;;;;5135464;27;19911;-41
2022/06/25 14:05:22;;;;;;;;;;;28.10;55.80;;;;;;5135487;27;19916;-40
2022/06/25 14:07:48;;;;;;;;;;;28.00;55.80;;;;;;5135511;27;19934;-41
2022/06/25 14:10:14;;;;;;;;;;;28.00;55.70;;;;;;5135380;27;19907;-40
2022/06/25 14:12:40;;;;;;;;;;;27.90;55.40;;;;;;5135311;27;19907;-40
2022/06/25 14:15:05;;;;;;;;;;;27.80;55.30;;;;;;5135262;27;20007;-40
2022/06/25 14:17:31;;;;;;;;;;;27.90;55.50;;;;;;5134501;27;20441;-38
2022/06/25 14:19:57;;;;;;;;;;;28.10;55.10;;;;;;5134995;27;20320;-39
2022/06/25 14:22:22;;;;;;;;;;;28.40;54.90;;;;;;5135074;27;19908;-40
2022/06/25 14:27:32;;;;;;;;;;;28.80;54.30;;;;;;5135321;27;19930;-39
2022/06/25 14:29:57;;;;;;;;;;;29.00;54.20;;;;;;5133698;27;19907;-40
2022/06/25 14:32:23;;;;;;;;;;;29.10;53.80;;;;;;5134972;27;19933;-40
2022/06/25 14:34:48;;;;;;;;;;;29.10;53.70;;;;;;5135141;27;19956;-40
2022/06/25 14:43:22;;;;;;;;;;;28.80;54.20;;;;;;5011735;28;19910;-40